sensor_id;sensor_type;location;lat;lon;timestamp;P1;durP1;ratioP1;P2;durP2;ratioP2
36923;SDS011;22841;50.252;18.688;2024-03-08T00:18:47;107.10;;;44.63;;
36923;SDS011;22841;50.252;18.688;2024-03-08T00:24:44;108.15;;;47.05;;
36923;SDS011;22841;50.252;18.688;2024-03-08T00:40:24;90.40;;;43.20;;
36923;SDS011;22841;50.252;18.688;2024-03-08T00:43:04;96.97;;;45.05;;
36923;SDS011;22841;50.252;18.688;2024-03-08T00:49:01;105.43;;;43.42;;
36923;SDS011;22841;50.252;18.688;2024-03-08T00:54:49;92.85;;;43.05;;
36923;SDS011;22841;50.252;18.688;2024-03-08T01:00:38;95.40;;;43.15;;
36923;SDS011;22841;50.252;18.688;2024-03-08T01:06:28;122.72;;;48.20;;
36923;SDS011;22841;50.252;18.688;2024-03-08T01:12:25;112.45;;;42.92;;
36923;SDS011;22841;50.252;18.688;2024-03-08T01:18:14;106.45;;;42.83;;
36923;SDS011;22841;50.252;18.688;2024-03-08T01:24:09;108.43;;;42.67;;
36923;SDS011;22841;50.252;18.688;2024-03-08T01:29:58;96.07;;;40.88;;
36923;SDS011;22841;50.252;18.688;2024-03-08T01:35:47;92.97;;;41.75;;
36923;SDS011;22841;50.252;18.688;2024-03-08T01:45:08;92.00;;;38.80;;
36923;SDS011;22841;50.252;18.688;2024-03-08T01:47:38;88.95;;;37.05;;
36923;SDS011;22841;50.252;18.688;2024-03-08T01:55:58;91.75;;;36.75;;
36923;SDS011;22841;50.252;18.688;2024-03-08T01:58:26;89.18;;;37.38;;
36923;SDS011;22841;50.252;18.688;2024-03-08T02:00:54;92.65;;;39.22;;
36923;SDS011;22841;50.252;18.688;2024-03-08T02:06:17;96.90;;;39.33;;
36923;SDS011;22841;50.252;18.688;2024-03-08T02:08:43;92.13;;;39.45;;
36923;SDS011;22841;50.252;18.688;2024-03-08T02:14:32;90.55;;;36.97;;
36923;SDS011;22841;50.252;18.688;2024-03-08T02:17:02;89.78;;;39.65;;
36923;SDS011;22841;50.252;18.688;2024-03-08T02:19:28;88.90;;;38.08;;
36923;SDS011;22841;50.252;18.688;2024-03-08T02:21:54;82.75;;;39.38;;
36923;SDS011;22841;50.252;18.688;2024-03-08T02:24:21;86.75;;;39.28;;
36923;SDS011;22841;50.252;18.688;2024-03-08T02:26:49;85.15;;;38.33;;
36923;SDS011;22841;50.252;18.688;2024-03-08T02:29:15;82.10;;;39.40;;
36923;SDS011;22841;50.252;18.688;2024-03-08T02:31:41;85.53;;;36.65;;
36923;SDS011;22841;50.252;18.688;2024-03-08T02:34:07;82.97;;;40.97;;
36923;SDS011;22841;50.252;18.688;2024-03-08T02:36:35;86.20;;;39.63;;
36923;SDS011;22841;50.252;18.688;2024-03-08T02:39:03;84.40;;;38.72;;
36923;SDS011;22841;50.252;18.688;2024-03-08T02:44:53;84.45;;;37.17;;
36923;SDS011;22841;50.252;18.688;2024-03-08T02:47:19;79.88;;;36.25;;
36923;SDS011;22841;50.252;18.688;2024-03-08T02:49:45;91.95;;;37.55;;
36923;SDS011;22841;50.252;18.688;2024-03-08T02:55:34;85.43;;;33.95;;
36923;SDS011;22841;50.252;18.688;2024-03-08T02:58:03;88.75;;;37.08;;
36923;SDS011;22841;50.252;18.688;2024-03-08T03:00:30;78.40;;;37.00;;
36923;SDS011;22841;50.252;18.688;2024-03-08T03:02:59;80.43;;;36.45;;
36923;SDS011;22841;50.252;18.688;2024-03-08T03:08:52;81.07;;;36.15;;
36923;SDS011;22841;50.252;18.688;2024-03-08T03:14:09;87.82;;;37.83;;
36923;SDS011;22841;50.252;18.688;2024-03-08T03:16:35;73.45;;;35.55;;
36923;SDS011;22841;50.252;18.688;2024-03-08T03:19:01;79.10;;;37.67;;
36923;SDS011;22841;50.252;18.688;2024-03-08T03:21:30;76.03;;;36.92;;
36923;SDS011;22841;50.252;18.688;2024-03-08T03:27:21;84.45;;;35.58;;
36923;SDS011;22841;50.252;18.688;2024-03-08T03:29:47;81.20;;;37.63;;
36923;SDS011;22841;50.252;18.688;2024-03-08T03:32:14;87.30;;;37.75;;
36923;SDS011;22841;50.252;18.688;2024-03-08T03:34:47;85.05;;;37.72;;
36923;SDS011;22841;50.252;18.688;2024-03-08T03:40:36;86.75;;;37.45;;
36923;SDS011;22841;50.252;18.688;2024-03-08T03:43:04;80.15;;;37.80;;
36923;SDS011;22841;50.252;18.688;2024-03-08T03:51:22;83.07;;;36.45;;
36923;SDS011;22841;50.252;18.688;2024-03-08T03:53:48;81.13;;;37.10;;
36923;SDS011;22841;50.252;18.688;2024-03-08T03:59:36;84.32;;;34.47;;
36923;SDS011;22841;50.252;18.688;2024-03-08T04:05:27;81.65;;;34.20;;
36923;SDS011;22841;50.252;18.688;2024-03-08T04:11:16;87.00;;;36.60;;
36923;SDS011;22841;50.252;18.688;2024-03-08T04:17:15;75.28;;;34.97;;
36923;SDS011;22841;50.252;18.688;2024-03-08T04:19:42;75.82;;;37.00;;
36923;SDS011;22841;50.252;18.688;2024-03-08T04:22:08;75.25;;;36.05;;
36923;SDS011;22841;50.252;18.688;2024-03-08T04:24:44;79.63;;;35.42;;
36923;SDS011;22841;50.252;18.688;2024-03-08T04:30:44;92.32;;;42.42;;
36923;SDS011;22841;50.252;18.688;2024-03-08T04:36:49;93.40;;;42.97;;
36923;SDS011;22841;50.252;18.688;2024-03-08T04:46:22;86.30;;;35.65;;
36923;SDS011;22841;50.252;18.688;2024-03-08T04:49:32;87.10;;;38.05;;
36923;SDS011;22841;50.252;18.688;2024-03-08T04:55:51;73.97;;;36.50;;
36923;SDS011;22841;50.252;18.688;2024-03-08T05:01:44;91.65;;;39.40;;
36923;SDS011;22841;50.252;18.688;2024-03-08T05:04:10;104.43;;;43.75;;
36923;SDS011;22841;50.252;18.688;2024-03-08T05:06:37;103.05;;;47.08;;
36923;SDS011;22841;50.252;18.688;2024-03-08T05:12:25;98.78;;;42.92;;
36923;SDS011;22841;50.252;18.688;2024-03-08T05:14:51;106.75;;;44.20;;
36923;SDS011;22841;50.252;18.688;2024-03-08T05:17:17;100.05;;;45.22;;
36923;SDS011;22841;50.252;18.688;2024-03-08T05:19:43;103.18;;;45.50;;
36923;SDS011;22841;50.252;18.688;2024-03-08T05:22:09;102.68;;;46.03;;
36923;SDS011;22841;50.252;18.688;2024-03-08T05:24:35;99.20;;;43.67;;
36923;SDS011;22841;50.252;18.688;2024-03-08T05:27:01;100.40;;;44.85;;
36923;SDS011;22841;50.252;18.688;2024-03-08T05:29:34;99.25;;;44.38;;
36923;SDS011;22841;50.252;18.688;2024-03-08T05:35:14;90.75;;;39.08;;
36923;SDS011;22841;50.252;18.688;2024-03-08T05:41:10;100.60;;;42.35;;
36923;SDS011;22841;50.252;18.688;2024-03-08T05:43:37;98.70;;;45.38;;
36923;SDS011;22841;50.252;18.688;2024-03-08T05:48:52;96.47;;;43.63;;
36923;SDS011;22841;50.252;18.688;2024-03-08T05:51:20;96.93;;;42.88;;
36923;SDS011;22841;50.252;18.688;2024-03-08T05:53:47;84.25;;;40.40;;
36923;SDS011;22841;50.252;18.688;2024-03-08T05:56:13;96.43;;;40.33;;
36923;SDS011;22841;50.252;18.688;2024-03-08T05:58:39;90.45;;;40.00;;
36923;SDS011;22841;50.252;18.688;2024-03-08T06:01:05;85.90;;;37.90;;
36923;SDS011;22841;50.252;18.688;2024-03-08T06:03:33;87.18;;;40.38;;
36923;SDS011;22841;50.252;18.688;2024-03-08T06:06:00;80.28;;;39.03;;
36923;SDS011;22841;50.252;18.688;2024-03-08T06:08:26;87.53;;;39.47;;
36923;SDS011;22841;50.252;18.688;2024-03-08T06:10:55;90.82;;;38.00;;
36923;SDS011;22841;50.252;18.688;2024-03-08T06:13:21;94.50;;;37.78;;
36923;SDS011;22841;50.252;18.688;2024-03-08T06:15:47;89.68;;;35.53;;
36923;SDS011;22841;50.252;18.688;2024-03-08T06:18:13;75.28;;;36.33;;
36923;SDS011;22841;50.252;18.688;2024-03-08T06:20:40;79.07;;;36.55;;
36923;SDS011;22841;50.252;18.688;2024-03-08T06:23:09;77.53;;;34.35;;
36923;SDS011;22841;50.252;18.688;2024-03-08T06:25:35;74.55;;;34.53;;
36923;SDS011;22841;50.252;18.688;2024-03-08T06:28:01;71.22;;;33.85;;
36923;SDS011;22841;50.252;18.688;2024-03-08T06:30:27;71.40;;;33.30;;
36923;SDS011;22841;50.252;18.688;2024-03-08T06:32:53;74.45;;;35.13;;
36923;SDS011;22841;50.252;18.688;2024-03-08T06:35:19;80.90;;;35.38;;
36923;SDS011;22841;50.252;18.688;2024-03-08T06:37:45;70.32;;;35.20;;
36923;SDS011;22841;50.252;18.688;2024-03-08T06:40:12;78.40;;;35.95;;
36923;SDS011;22841;50.252;18.688;2024-03-08T06:42:41;79.43;;;35.05;;
36923;SDS011;22841;50.252;18.688;2024-03-08T06:45:08;66.82;;;32.85;;
36923;SDS011;22841;50.252;18.688;2024-03-08T06:47:36;61.05;;;27.40;;
36923;SDS011;22841;50.252;18.688;2024-03-08T06:50:02;53.05;;;26.40;;
36923;SDS011;22841;50.252;18.688;2024-03-08T06:52:29;50.45;;;24.05;;
36923;SDS011;22841;50.252;18.688;2024-03-08T06:54:55;59.70;;;26.58;;
36923;SDS011;22841;50.252;18.688;2024-03-08T06:57:22;60.53;;;26.88;;
36923;SDS011;22841;50.252;18.688;2024-03-08T06:59:49;46.38;;;24.50;;
36923;SDS011;22841;50.252;18.688;2024-03-08T07:02:15;47.25;;;24.90;;
36923;SDS011;22841;50.252;18.688;2024-03-08T07:04:41;48.83;;;24.58;;
36923;SDS011;22841;50.252;18.688;2024-03-08T07:07:07;55.10;;;26.40;;
36923;SDS011;22841;50.252;18.688;2024-03-08T07:09:38;50.92;;;25.10;;
36923;SDS011;22841;50.252;18.688;2024-03-08T07:12:04;61.22;;;27.05;;
36923;SDS011;22841;50.252;18.688;2024-03-08T07:14:30;49.72;;;24.35;;
36923;SDS011;22841;50.252;18.688;2024-03-08T07:16:56;55.17;;;26.98;;
36923;SDS011;22841;50.252;18.688;2024-03-08T07:19:22;50.33;;;25.90;;
36923;SDS011;22841;50.252;18.688;2024-03-08T07:21:49;52.58;;;25.48;;
36923;SDS011;22841;50.252;18.688;2024-03-08T07:24:15;51.80;;;25.60;;
36923;SDS011;22841;50.252;18.688;2024-03-08T07:26:47;51.67;;;24.55;;
36923;SDS011;22841;50.252;18.688;2024-03-08T07:29:15;49.08;;;23.88;;
36923;SDS011;22841;50.252;18.688;2024-03-08T07:31:41;50.38;;;26.98;;
36923;SDS011;22841;50.252;18.688;2024-03-08T07:34:07;61.40;;;27.25;;
36923;SDS011;22841;50.252;18.688;2024-03-08T07:36:33;56.67;;;26.98;;
36923;SDS011;22841;50.252;18.688;2024-03-08T07:39:02;53.65;;;27.73;;
36923;SDS011;22841;50.252;18.688;2024-03-08T07:41:31;53.85;;;26.38;;
36923;SDS011;22841;50.252;18.688;2024-03-08T07:43:57;51.65;;;24.52;;
36923;SDS011;22841;50.252;18.688;2024-03-08T07:46:23;67.97;;;27.92;;
36923;SDS011;22841;50.252;18.688;2024-03-08T07:48:49;53.08;;;26.65;;
36923;SDS011;22841;50.252;18.688;2024-03-08T07:51:16;55.83;;;28.52;;
36923;SDS011;22841;50.252;18.688;2024-03-08T07:53:43;54.58;;;27.15;;
36923;SDS011;22841;50.252;18.688;2024-03-08T07:56:10;61.30;;;31.38;;
36923;SDS011;22841;50.252;18.688;2024-03-08T07:58:38;59.45;;;28.45;;
36923;SDS011;22841;50.252;18.688;2024-03-08T08:01:08;58.30;;;30.13;;
36923;SDS011;22841;50.252;18.688;2024-03-08T08:03:45;62.75;;;30.42;;
36923;SDS011;22841;50.252;18.688;2024-03-08T08:06:11;49.20;;;26.55;;
36923;SDS011;22841;50.252;18.688;2024-03-08T08:08:41;52.08;;;27.00;;
36923;SDS011;22841;50.252;18.688;2024-03-08T08:11:09;56.20;;;29.70;;
36923;SDS011;22841;50.252;18.688;2024-03-08T08:13:36;59.88;;;29.50;;
36923;SDS011;22841;50.252;18.688;2024-03-08T08:16:03;56.80;;;28.00;;
36923;SDS011;22841;50.252;18.688;2024-03-08T08:18:31;57.47;;;28.45;;
36923;SDS011;22841;50.252;18.688;2024-03-08T08:20:58;56.20;;;28.35;;
36923;SDS011;22841;50.252;18.688;2024-03-08T08:23:25;57.15;;;27.40;;
36923;SDS011;22841;50.252;18.688;2024-03-08T08:25:51;63.72;;;30.88;;
36923;SDS011;22841;50.252;18.688;2024-03-08T08:28:17;54.05;;;26.67;;
36923;SDS011;22841;50.252;18.688;2024-03-08T08:30:44;52.85;;;26.70;;
36923;SDS011;22841;50.252;18.688;2024-03-08T08:33:10;55.60;;;27.83;;
36923;SDS011;22841;50.252;18.688;2024-03-08T08:35:37;53.40;;;27.00;;
36923;SDS011;22841;50.252;18.688;2024-03-08T08:38:05;56.88;;;28.67;;
36923;SDS011;22841;50.252;18.688;2024-03-08T08:40:35;62.65;;;28.80;;
36923;SDS011;22841;50.252;18.688;2024-03-08T08:43:02;55.08;;;26.73;;
36923;SDS011;22841;50.252;18.688;2024-03-08T08:45:32;56.85;;;27.33;;
36923;SDS011;22841;50.252;18.688;2024-03-08T08:47:58;57.95;;;27.30;;
36923;SDS011;22841;50.252;18.688;2024-03-08T08:50:25;51.25;;;24.95;;
36923;SDS011;22841;50.252;18.688;2024-03-08T10:23:25;48.80;;;26.00;;
36923;SDS011;22841;50.252;18.688;2024-03-08T10:44:44;44.08;;;23.50;;
36923;SDS011;22841;50.252;18.688;2024-03-08T12:34:02;56.38;;;29.50;;
36923;SDS011;22841;50.252;18.688;2024-03-08T12:36:54;53.28;;;28.92;;
36923;SDS011;22841;50.252;18.688;2024-03-08T12:39:21;54.10;;;27.98;;
36923;SDS011;22841;50.252;18.688;2024-03-08T12:41:51;53.88;;;27.88;;
36923;SDS011;22841;50.252;18.688;2024-03-08T12:44:17;50.80;;;27.38;;
36923;SDS011;22841;50.252;18.688;2024-03-08T12:46:44;55.03;;;28.67;;
36923;SDS011;22841;50.252;18.688;2024-03-08T12:49:10;54.25;;;27.27;;
36923;SDS011;22841;50.252;18.688;2024-03-08T12:51:38;48.08;;;27.73;;
36923;SDS011;22841;50.252;18.688;2024-03-08T12:54:07;54.72;;;27.67;;
36923;SDS011;22841;50.252;18.688;2024-03-08T12:56:34;59.05;;;29.52;;
36923;SDS011;22841;50.252;18.688;2024-03-08T12:59:03;53.65;;;28.35;;
36923;SDS011;22841;50.252;18.688;2024-03-08T13:01:30;54.08;;;27.85;;
36923;SDS011;22841;50.252;18.688;2024-03-08T13:03:57;46.15;;;27.15;;
36923;SDS011;22841;50.252;18.688;2024-03-08T13:06:24;46.95;;;25.50;;
36923;SDS011;22841;50.252;18.688;2024-03-08T13:08:50;50.05;;;26.02;;
36923;SDS011;22841;50.252;18.688;2024-03-08T13:11:20;58.33;;;27.00;;
36923;SDS011;22841;50.252;18.688;2024-03-08T13:13:48;46.10;;;27.40;;
36923;SDS011;22841;50.252;18.688;2024-03-08T13:16:15;52.95;;;29.27;;
36923;SDS011;22841;50.252;18.688;2024-03-08T13:18:42;51.20;;;28.17;;
36923;SDS011;22841;50.252;18.688;2024-03-08T13:21:09;53.22;;;28.70;;
36923;SDS011;22841;50.252;18.688;2024-03-08T13:23:36;55.97;;;29.35;;
36923;SDS011;22841;50.252;18.688;2024-03-08T13:26:10;51.55;;;27.23;;
36923;SDS011;22841;50.252;18.688;2024-03-08T13:28:45;53.72;;;29.55;;
36923;SDS011;22841;50.252;18.688;2024-03-08T13:31:11;54.83;;;28.27;;
36923;SDS011;22841;50.252;18.688;2024-03-08T13:33:37;58.42;;;31.23;;
36923;SDS011;22841;50.252;18.688;2024-03-08T13:36:12;79.00;;;31.45;;
36923;SDS011;22841;50.252;18.688;2024-03-08T13:38:45;57.97;;;30.67;;
36923;SDS011;22841;50.252;18.688;2024-03-08T13:41:13;58.58;;;31.30;;
36923;SDS011;22841;50.252;18.688;2024-03-08T13:43:44;57.53;;;31.55;;
36923;SDS011;22841;50.252;18.688;2024-03-08T13:48:38;64.65;;;31.33;;
36923;SDS011;22841;50.252;18.688;2024-03-08T13:51:04;56.30;;;28.50;;
36923;SDS011;22841;50.252;18.688;2024-03-08T13:53:32;61.55;;;30.40;;
36923;SDS011;22841;50.252;18.688;2024-03-08T13:56:01;66.28;;;32.00;;
36923;SDS011;22841;50.252;18.688;2024-03-08T13:58:27;68.25;;;33.25;;
36923;SDS011;22841;50.252;18.688;2024-03-08T14:00:54;66.53;;;33.60;;
36923;SDS011;22841;50.252;18.688;2024-03-08T14:03:21;60.20;;;30.13;;
36923;SDS011;22841;50.252;18.688;2024-03-08T14:05:49;66.38;;;33.33;;
36923;SDS011;22841;50.252;18.688;2024-03-08T14:08:15;59.88;;;31.35;;
36923;SDS011;22841;50.252;18.688;2024-03-08T14:10:43;59.15;;;33.00;;
36923;SDS011;22841;50.252;18.688;2024-03-08T14:13:12;63.63;;;32.78;;
36923;SDS011;22841;50.252;18.688;2024-03-08T14:15:40;64.28;;;33.13;;
36923;SDS011;22841;50.252;18.688;2024-03-08T14:18:08;64.70;;;32.33;;
36923;SDS011;22841;50.252;18.688;2024-03-08T14:20:34;69.65;;;34.50;;
36923;SDS011;22841;50.252;18.688;2024-03-08T14:23:00;66.75;;;34.65;;
36923;SDS011;22841;50.252;18.688;2024-03-08T14:25:26;66.45;;;34.75;;
36923;SDS011;22841;50.252;18.688;2024-03-08T14:27:55;67.40;;;33.78;;
36923;SDS011;22841;50.252;18.688;2024-03-08T14:30:27;70.18;;;35.55;;
36923;SDS011;22841;50.252;18.688;2024-03-08T14:33:07;73.05;;;35.63;;
36923;SDS011;22841;50.252;18.688;2024-03-08T14:35:37;66.82;;;34.58;;
36923;SDS011;22841;50.252;18.688;2024-03-08T14:38:04;63.80;;;32.92;;
36923;SDS011;22841;50.252;18.688;2024-03-08T14:40:33;76.13;;;35.60;;
36923;SDS011;22841;50.252;18.688;2024-03-08T14:43:01;71.75;;;35.30;;
36923;SDS011;22841;50.252;18.688;2024-03-08T14:45:28;74.93;;;35.65;;
36923;SDS011;22841;50.252;18.688;2024-03-08T14:47:54;66.63;;;33.60;;
36923;SDS011;22841;50.252;18.688;2024-03-08T14:50:20;74.65;;;36.25;;
36923;SDS011;22841;50.252;18.688;2024-03-08T14:52:49;68.22;;;34.80;;
36923;SDS011;22841;50.252;18.688;2024-03-08T14:55:16;68.15;;;32.95;;
36923;SDS011;22841;50.252;18.688;2024-03-08T14:57:50;71.78;;;34.90;;
36923;SDS011;22841;50.252;18.688;2024-03-08T15:00:18;64.60;;;33.60;;
36923;SDS011;22841;50.252;18.688;2024-03-08T15:03:01;70.47;;;35.05;;
36923;SDS011;22841;50.252;18.688;2024-03-08T15:05:28;71.82;;;35.08;;
36923;SDS011;22841;50.252;18.688;2024-03-08T15:07:57;65.55;;;34.33;;
36923;SDS011;22841;50.252;18.688;2024-03-08T15:10:28;64.75;;;32.35;;
36923;SDS011;22841;50.252;18.688;2024-03-08T15:12:56;67.72;;;33.30;;
36923;SDS011;22841;50.252;18.688;2024-03-08T15:15:23;67.18;;;32.90;;
36923;SDS011;22841;50.252;18.688;2024-03-08T15:17:50;64.57;;;32.33;;
36923;SDS011;22841;50.252;18.688;2024-03-08T15:20:16;66.28;;;33.17;;
36923;SDS011;22841;50.252;18.688;2024-03-08T15:22:49;68.75;;;32.88;;
36923;SDS011;22841;50.252;18.688;2024-03-08T15:25:16;63.70;;;33.97;;
36923;SDS011;22841;50.252;18.688;2024-03-08T15:27:52;67.22;;;31.60;;
36923;SDS011;22841;50.252;18.688;2024-03-08T15:30:19;63.53;;;32.03;;
36923;SDS011;22841;50.252;18.688;2024-03-08T15:32:48;78.60;;;31.52;;
36923;SDS011;22841;50.252;18.688;2024-03-08T15:35:16;67.45;;;31.40;;
36923;SDS011;22841;50.252;18.688;2024-03-08T15:37:44;67.32;;;31.85;;
36923;SDS011;22841;50.252;18.688;2024-03-08T15:40:11;59.30;;;32.78;;
36923;SDS011;22841;50.252;18.688;2024-03-08T15:42:55;64.07;;;32.83;;
36923;SDS011;22841;50.252;18.688;2024-03-08T15:45:22;63.45;;;31.30;;
36923;SDS011;22841;50.252;18.688;2024-03-08T15:47:49;62.30;;;32.55;;
36923;SDS011;22841;50.252;18.688;2024-03-08T15:50:16;59.22;;;31.90;;
36923;SDS011;22841;50.252;18.688;2024-03-08T15:52:43;63.45;;;33.20;;
36923;SDS011;22841;50.252;18.688;2024-03-08T15:55:17;68.80;;;34.60;;
36923;SDS011;22841;50.252;18.688;2024-03-08T15:57:50;67.10;;;33.83;;
36923;SDS011;22841;50.252;18.688;2024-03-08T16:00:18;60.58;;;32.65;;
36923;SDS011;22841;50.252;18.688;2024-03-08T16:03:02;65.55;;;32.95;;
36923;SDS011;22841;50.252;18.688;2024-03-08T16:05:35;64.18;;;33.05;;
36923;SDS011;22841;50.252;18.688;2024-03-08T16:08:01;65.20;;;32.78;;
36923;SDS011;22841;50.252;18.688;2024-03-08T16:10:27;67.75;;;32.78;;
36923;SDS011;22841;50.252;18.688;2024-03-08T16:12:58;67.05;;;32.38;;
36923;SDS011;22841;50.252;18.688;2024-03-08T16:15:26;65.65;;;33.40;;
36923;SDS011;22841;50.252;18.688;2024-03-08T16:17:52;73.28;;;36.03;;
36923;SDS011;22841;50.252;18.688;2024-03-08T16:20:19;70.05;;;35.78;;
36923;SDS011;22841;50.252;18.688;2024-03-08T16:22:46;82.95;;;39.35;;
36923;SDS011;22841;50.252;18.688;2024-03-08T16:25:17;84.63;;;37.10;;
36923;SDS011;22841;50.252;18.688;2024-03-08T16:27:44;80.28;;;39.17;;
36923;SDS011;22841;50.252;18.688;2024-03-08T16:30:12;80.65;;;38.97;;
36923;SDS011;22841;50.252;18.688;2024-03-08T16:32:44;84.40;;;39.53;;
36923;SDS011;22841;50.252;18.688;2024-03-08T16:37:42;69.80;;;34.35;;
36923;SDS011;22841;50.252;18.688;2024-03-08T16:40:08;77.65;;;36.67;;
36923;SDS011;22841;50.252;18.688;2024-03-08T16:42:44;73.35;;;34.20;;
36923;SDS011;22841;50.252;18.688;2024-03-08T16:45:11;68.25;;;35.58;;
36923;SDS011;22841;50.252;18.688;2024-03-08T16:47:40;68.57;;;32.22;;
36923;SDS011;22841;50.252;18.688;2024-03-08T16:50:07;69.20;;;34.30;;
36923;SDS011;22841;50.252;18.688;2024-03-08T16:52:34;71.88;;;35.25;;
36923;SDS011;22841;50.252;18.688;2024-03-08T16:55:04;69.35;;;34.03;;
36923;SDS011;22841;50.252;18.688;2024-03-08T16:57:34;70.75;;;36.22;;
36923;SDS011;22841;50.252;18.688;2024-03-08T17:00:01;83.65;;;40.00;;
36923;SDS011;22841;50.252;18.688;2024-03-08T17:02:35;87.63;;;40.67;;
36923;SDS011;22841;50.252;18.688;2024-03-08T17:05:03;90.20;;;43.50;;
36923;SDS011;22841;50.252;18.688;2024-03-08T17:07:31;93.03;;;43.00;;
36923;SDS011;22841;50.252;18.688;2024-03-08T17:09:59;90.13;;;43.60;;
36923;SDS011;22841;50.252;18.688;2024-03-08T17:12:25;91.43;;;42.00;;
36923;SDS011;22841;50.252;18.688;2024-03-08T17:14:52;87.93;;;41.30;;
36923;SDS011;22841;50.252;18.688;2024-03-08T17:17:18;88.55;;;41.55;;
36923;SDS011;22841;50.252;18.688;2024-03-08T17:19:44;81.05;;;39.65;;
36923;SDS011;22841;50.252;18.688;2024-03-08T17:22:10;75.40;;;38.30;;
36923;SDS011;22841;50.252;18.688;2024-03-08T17:24:36;80.20;;;37.72;;
36923;SDS011;22841;50.252;18.688;2024-03-08T17:27:04;78.90;;;38.05;;
36923;SDS011;22841;50.252;18.688;2024-03-08T17:29:32;97.85;;;39.90;;
36923;SDS011;22841;50.252;18.688;2024-03-08T17:31:58;84.72;;;40.25;;
36923;SDS011;22841;50.252;18.688;2024-03-08T17:34:25;87.03;;;40.30;;
36923;SDS011;22841;50.252;18.688;2024-03-08T17:36:53;83.65;;;38.85;;
36923;SDS011;22841;50.252;18.688;2024-03-08T17:39:23;86.47;;;41.83;;
36923;SDS011;22841;50.252;18.688;2024-03-08T17:41:55;84.85;;;42.05;;
36923;SDS011;22841;50.252;18.688;2024-03-08T17:44:22;93.97;;;42.70;;
36923;SDS011;22841;50.252;18.688;2024-03-08T17:46:48;98.20;;;42.92;;
36923;SDS011;22841;50.252;18.688;2024-03-08T17:49:15;88.45;;;40.53;;
36923;SDS011;22841;50.252;18.688;2024-03-08T17:51:42;99.75;;;44.20;;
36923;SDS011;22841;50.252;18.688;2024-03-08T17:54:08;104.05;;;49.85;;
36923;SDS011;22841;50.252;18.688;2024-03-08T18:00:04;122.13;;;56.58;;
36923;SDS011;22841;50.252;18.688;2024-03-08T18:02:35;110.78;;;53.15;;
36923;SDS011;22841;50.252;18.688;2024-03-08T18:05:01;120.13;;;54.28;;
36923;SDS011;22841;50.252;18.688;2024-03-08T18:07:30;114.82;;;53.22;;
36923;SDS011;22841;50.252;18.688;2024-03-08T18:15:22;127.32;;;55.33;;
